Time;durP1;ratioP1;P1;durP2;ratioP2;P2;SDS_P1;SDS_P2;PMS_P1;PMS_P2;Temp;Humidity;BMP_temperature;BMP_pressure;BME280_temperature;BME280_humidity;BME280_pressure;Samples;Min_cycle;Max_cycle;Signal;HPM_P1;HPM_P2
2022/03/23 00:00:07;;;;;;;19.25;11.52;;;;;14.90;102905.00;;;;4984583;28;20198;-77
2022/03/23 00:02:34;;;;;;;17.95;11.02;;;;;14.90;102896.00;;;;4986012;28;20221;-78
2022/03/23 00:05:01;;;;;;;19.60;10.95;;;;;14.90;102890.00;;;;4982235;28;20229;-77
2022/03/23 00:07:29;;;;;;;15.90;10.60;;;;;14.90;102896.00;;;;4990716;28;20730;-77
2022/03/23 00:09:57;;;;;;;17.48;11.95;;;;;14.90;102902.00;;;;4985776;28;20202;-77
2022/03/23 00:12:25;;;;;;;21.42;10.18;;;;;14.90;102891.00;;;;4985815;28;20224;-77
2022/03/23 00:14:52;;;;;;;15.77;11.02;;;;;14.80;102885.00;;;;4987962;28;20225;-77
2022/03/23 00:17:20;;;;;;;16.15;11.05;;;;;14.80;102888.00;;;;4984518;28;20723;-76
2022/03/23 00:19:48;;;;;;;19.30;11.02;;;;;14.80;102887.00;;;;4988163;28;20209;-78
2022/03/23 00:22:15;;;;;;;14.32;9.73;;;;;14.80;102881.00;;;;4983311;28;20201;-77
2022/03/23 00:24:42;;;;;;;17.77;10.32;;;;;14.80;102886.00;;;;4989048;28;20221;-78
2022/03/23 00:27:11;;;;;;;18.27;10.35;;;;;14.70;102882.00;;;;4984763;28;21930;-78
2022/03/23 00:29:38;;;;;;;18.33;10.73;;;;;14.70;102882.00;;;;4987024;28;20204;-78
2022/03/23 00:32:06;;;;;;;15.98;10.25;;;;;14.70;102878.00;;;;4980526;28;20189;-77
2022/03/23 00:34:34;;;;;;;18.45;11.25;;;;;14.60;102880.00;;;;4981285;28;20271;-77
2022/03/23 00:37:01;;;;;;;15.70;10.73;;;;;14.60;102876.00;;;;4985364;28;20208;-78
2022/03/23 00:39:28;;;;;;;18.05;11.20;;;;;14.60;102886.00;;;;4982672;28;20742;-78
2022/03/23 00:41:56;;;;;;;15.90;10.27;;;;;14.60;102874.00;;;;4986082;28;20212;-77
2022/03/23 00:44:24;;;;;;;16.05;10.35;;;;;14.50;102875.00;;;;4976083;28;20311;-78
2022/03/23 00:46:52;;;;;;;17.00;10.25;;;;;14.50;102882.00;;;;4981755;28;20198;-77
2022/03/23 00:49:20;;;;;;;17.75;10.70;;;;;14.50;102877.00;;;;4979801;28;20209;-77
2022/03/23 00:51:47;;;;;;;14.40;10.73;;;;;14.40;102876.00;;;;4982705;28;20228;-77
2022/03/23 00:54:14;;;;;;;14.75;9.70;;;;;14.40;102881.00;;;;4979231;28;20209;-77
2022/03/23 00:56:41;;;;;;;18.02;10.90;;;;;14.40;102875.00;;;;4988274;28;20267;-78
2022/03/23 00:59:09;;;;;;;17.25;10.93;;;;;14.30;102877.00;;;;4979854;28;20247;-77
2022/03/23 01:01:38;;;;;;;14.45;9.70;;;;;14.30;102876.00;;;;4977118;28;20665;-77
2022/03/23 01:04:06;;;;;;;16.70;10.13;;;;;14.30;102870.00;;;;4990079;28;20292;-77
2022/03/23 01:06:33;;;;;;;17.65;10.38;;;;;14.20;102874.00;;;;4987454;28;20230;-77
2022/03/23 01:09:00;;;;;;;17.95;10.52;;;;;14.20;102869.00;;;;4984082;28;20700;-77
2022/03/23 01:11:28;;;;;;;18.63;10.32;;;;;14.20;102868.00;;;;4980310;28;20209;-77
2022/03/23 01:13:55;;;;;;;16.25;10.05;;;;;14.10;102869.00;;;;4988899;28;20201;-77
2022/03/23 01:16:22;;;;;;;32.10;10.88;;;;;14.10;102861.00;;;;5000550;28;20236;-77
2022/03/23 01:18:51;;;;;;;17.25;9.90;;;;;14.10;102870.00;;;;4990215;28;20197;-77
2022/03/23 01:21:18;;;;;;;14.43;10.30;;;;;14.00;102867.00;;;;4981351;28;20206;-78
2022/03/23 01:23:46;;;;;;;16.15;10.48;;;;;14.00;102866.00;;;;4985372;28;20209;-77
2022/03/23 01:26:13;;;;;;;13.93;9.75;;;;;14.00;102864.00;;;;4987026;28;20256;-77
2022/03/23 01:28:41;;;;;;;20.13;10.38;;;;;13.90;102862.00;;;;4983205;28;20200;-77
2022/03/23 01:31:08;;;;;;;14.30;9.77;;;;;13.90;102863.00;;;;4983283;28;20209;-77
2022/03/23 01:33:35;;;;;;;16.30;10.18;;;;;13.90;102858.00;;;;4982539;28;20304;-77
2022/03/23 01:36:04;;;;;;;15.48;10.10;;;;;13.80;102863.00;;;;4981999;28;20260;-77
2022/03/23 01:38:32;;;;;;;16.95;9.82;;;;;13.80;102862.00;;;;4979845;28;20206;-77
2022/03/23 01:40:59;;;;;;;17.38;9.88;;;;;13.80;102858.00;;;;4988170;28;20193;-77
2022/03/23 01:43:26;;;;;;;19.90;11.10;;;;;13.70;102861.00;;;;4991355;28;20969;-78
2022/03/23 01:45:54;;;;;;;17.10;10.95;;;;;13.70;102859.00;;;;4994202;28;20706;-77
2022/03/23 01:48:24;;;;;;;13.93;10.13;;;;;13.60;102857.00;;;;4986489;28;20217;-78
2022/03/23 01:50:51;;;;;;;18.60;10.32;;;;;13.60;102862.00;;;;4987955;28;20201;-78
2022/03/23 01:53:20;;;;;;;15.95;10.70;;;;;13.60;102849.00;;;;4989359;28;20205;-78
2022/03/23 01:55:47;;;;;;;15.63;11.07;;;;;13.50;102849.00;;;;4985706;28;20201;-78
2022/03/23 01:58:14;;;;;;;16.02;10.50;;;;;13.50;102845.00;;;;4985354;28;20198;-77
2022/03/23 02:00:42;;;;;;;16.30;10.82;;;;;13.50;102846.00;;;;4986221;28;20206;-77
2022/03/23 02:03:12;;;;;;;13.85;9.80;;;;;13.40;102847.00;;;;4982755;28;20202;-77
2022/03/23 02:05:40;;;;;;;15.55;10.40;;;;;13.40;102839.00;;;;4983441;28;20239;-77
2022/03/23 02:08:07;;;;;;;14.05;9.80;;;;;13.30;102839.00;;;;4980681;28;20221;-78
2022/03/23 02:10:36;;;;;;;20.42;11.75;;;;;13.30;102838.00;;;;4981827;28;20621;-77
2022/03/23 02:13:03;;;;;;;14.93;9.32;;;;;13.30;102836.00;;;;4993220;28;20204;-77
2022/03/23 02:15:31;;;;;;;15.93;10.68;;;;;13.20;102839.00;;;;4985348;28;20244;-77
2022/03/23 02:17:58;;;;;;;17.00;11.48;;;;;13.20;102831.00;;;;4991175;28;20256;-77
2022/03/23 02:20:26;;;;;;;17.95;10.60;;;;;13.20;102838.00;;;;4990783;28;20243;-77
2022/03/23 02:22:55;;;;;;;17.17;10.55;;;;;13.10;102848.00;;;;4993153;28;20711;-77
2022/03/23 02:25:24;;;;;;;16.48;11.30;;;;;13.10;102838.00;;;;4989074;28;20758;-77
2022/03/23 02:27:53;;;;;;;13.68;9.68;;;;;13.10;102840.00;;;;4978349;28;20205;-78
2022/03/23 02:30:21;;;;;;;18.08;10.38;;;;;13.00;102840.00;;;;4978998;28;20205;-78
2022/03/23 02:32:49;;;;;;;16.65;10.13;;;;;13.00;102840.00;;;;4979391;28;20272;-78
2022/03/23 02:35:17;;;;;;;16.88;10.88;;;;;13.00;102847.00;;;;4981874;28;20202;-77
2022/03/23 02:37:45;;;;;;;15.95;10.77;;;;;12.90;102838.00;;;;4981654;28;20292;-77
2022/03/23 02:40:14;;;;;;;16.63;11.40;;;;;12.90;102831.00;;;;4986253;28;20205;-77
2022/03/23 02:42:41;;;;;;;16.67;10.07;;;;;12.90;102837.00;;;;4974764;28;20201;-77
2022/03/23 02:45:11;;;;;;;18.17;10.50;;;;;12.80;102835.00;;;;4985538;28;20230;-77
2022/03/23 02:47:38;;;;;;;24.30;11.02;;;;;12.80;102827.00;;;;4988807;28;20208;-77
2022/03/23 02:50:07;;;;;;;16.55;11.45;;;;;12.80;102827.00;;;;4982684;28;20209;-77
2022/03/23 02:52:35;;;;;;;18.25;10.68;;;;;12.80;102826.00;;;;4987510;28;20198;-77
2022/03/23 03:03:58;;;;;;;15.43;9.82;;;;;12.60;102822.00;;;;4988555;28;20208;-77
2022/03/23 03:06:25;;;;;;;19.17;10.98;;;;;12.60;102829.00;;;;4981051;28;20241;-77
2022/03/23 03:08:52;;;;;;;14.82;9.80;;;;;12.60;102834.00;;;;4982593;28;20217;-77
2022/03/23 03:11:21;;;;;;;16.70;10.05;;;;;12.50;102834.00;;;;4980266;28;20197;-77
2022/03/23 03:13:51;;;;;;;18.67;11.18;;;;;12.50;102835.00;;;;4982828;28;20236;-77
2022/03/23 03:16:20;;;;;;;14.45;9.55;;;;;12.50;102834.00;;;;4980795;28;22149;-77
2022/03/23 03:18:47;;;;;;;17.20;11.60;;;;;12.50;102838.00;;;;4984312;28;20201;-77
2022/03/23 03:21:15;;;;;;;19.15;10.05;;;;;12.50;102835.00;;;;4976109;28;21477;-77
2022/03/23 03:23:43;;;;;;;18.92;11.35;;;;;12.40;102840.00;;;;4982447;28;20198;-76
2022/03/23 03:26:11;;;;;;;14.88;10.40;;;;;12.40;102841.00;;;;4984508;28;20225;-76
2022/03/23 03:28:40;;;;;;;14.65;9.98;;;;;12.40;102844.00;;;;4985890;28;20225;-76
2022/03/23 03:31:10;;;;;;;17.17;10.88;;;;;12.30;102845.00;;;;4979186;28;20255;-78
2022/03/23 03:33:38;;;;;;;16.60;10.80;;;;;12.30;102840.00;;;;4983200;28;20201;-79
2022/03/23 03:36:06;;;;;;;14.73;9.15;;;;;12.30;102838.00;;;;4984074;28;20205;-78
2022/03/23 03:38:34;;;;;;;17.65;10.18;;;;;12.30;102840.00;;;;4980754;28;20202;-76
2022/03/23 03:41:02;;;;;;;16.42;10.85;;;;;12.30;102840.00;;;;4986024;28;20579;-76
2022/03/23 03:43:30;;;;;;;16.17;10.20;;;;;12.20;102843.00;;;;4980861;28;20297;-76
2022/03/23 03:45:57;;;;;;;18.67;10.60;;;;;12.20;102844.00;;;;4980720;28;20233;-76
2022/03/23 03:48:26;;;;;;;18.23;11.35;;;;;12.20;102847.00;;;;4990412;28;20193;-76
2022/03/23 03:50:54;;;;;;;17.88;11.10;;;;;12.20;102852.00;;;;4978303;28;20918;-76
2022/03/23 03:53:21;;;;;;;17.38;10.65;;;;;12.10;102848.00;;;;4982069;28;20201;-76
2022/03/23 03:55:48;;;;;;;17.55;11.80;;;;;12.10;102848.00;;;;4972575;28;20285;-76
2022/03/23 03:58:17;;;;;;;19.13;11.15;;;;;12.10;102852.00;;;;4974237;28;20213;-77
2022/03/23 04:00:45;;;;;;;19.90;11.95;;;;;12.00;102857.00;;;;4984339;28;20318;-77
2022/03/23 04:03:14;;;;;;;14.20;9.68;;;;;12.00;102853.00;;;;4979156;28;20216;-77
2022/03/23 04:05:43;;;;;;;14.40;9.88;;;;;12.00;102849.00;;;;4976347;28;20249;-77
2022/03/23 04:08:10;;;;;;;15.90;10.40;;;;;12.00;102850.00;;;;4983760;28;20216;-76
2022/03/23 04:10:37;;;;;;;18.55;11.02;;;;;12.00;102850.00;;;;4978282;28;20197;-77
2022/03/23 04:13:07;;;;;;;15.15;10.35;;;;;11.90;102853.00;;;;4981473;28;20229;-77
2022/03/23 04:15:35;;;;;;;18.90;10.23;;;;;11.90;102863.00;;;;4985355;28;20228;-76
2022/03/23 04:18:03;;;;;;;16.73;10.65;;;;;11.90;102864.00;;;;4980958;28;20202;-77
2022/03/23 04:20:31;;;;;;;20.67;11.93;;;;;11.90;102858.00;;;;4986593;28;20312;-77
2022/03/23 04:23:00;;;;;;;16.77;10.45;;;;;11.80;102856.00;;;;4982080;28;20198;-76
2022/03/23 04:25:27;;;;;;;16.38;10.95;;;;;11.80;102853.00;;;;4981070;28;20262;-76
2022/03/23 04:27:56;;;;;;;16.73;11.27;;;;;11.80;102859.00;;;;4982378;28;20208;-77
2022/03/23 04:30:31;;;;;;;15.13;9.82;;;;;11.80;102857.00;;;;4983295;28;20486;-76
2022/03/23 04:33:00;;;;;;;18.70;11.32;;;;;11.80;102854.00;;;;4979886;28;20200;-77
2022/03/23 04:35:27;;;;;;;23.40;11.02;;;;;11.80;102863.00;;;;4979219;28;20205;-77
2022/03/23 04:37:55;;;;;;;15.82;9.85;;;;;11.80;102857.00;;;;4980558;28;20690;-77
2022/03/23 04:40:24;;;;;;;16.40;10.35;;;;;11.80;102859.00;;;;4981741;28;20244;-76
2022/03/23 04:42:51;;;;;;;15.85;10.88;;;;;11.80;102850.00;;;;4981117;28;20586;-77
2022/03/23 04:45:20;;;;;;;16.60;11.10;;;;;11.70;102856.00;;;;4987671;28;20201;-77
2022/03/23 04:47:48;;;;;;;15.57;9.75;;;;;11.70;102858.00;;;;4984541;28;20209;-76
2022/03/23 04:50:16;;;;;;;22.85;10.88;;;;;11.70;102858.00;;;;4986236;28;20201;-76
2022/03/23 04:52:44;;;;;;;15.63;9.98;;;;;11.70;102861.00;;;;4979645;28;20220;-76
2022/03/23 04:55:13;;;;;;;17.80;10.57;;;;;11.70;102862.00;;;;4982339;28;20220;-78
2022/03/23 04:57:42;;;;;;;15.98;10.35;;;;;11.70;102859.00;;;;4975602;28;20285;-78
2022/03/23 05:00:13;;;;;;;18.17;10.43;;;;;11.70;102860.00;;;;4981404;28;20304;-78
2022/03/23 05:02:40;;;;;;;17.45;10.70;;;;;11.60;102859.00;;;;4987655;28;20361;-77
2022/03/23 05:05:10;;;;;;;18.52;10.40;;;;;11.60;102862.00;;;;4983379;28;20197;-77
2022/03/23 05:07:37;;;;;;;14.77;10.02;;;;;11.60;102862.00;;;;4981879;28;20221;-78
2022/03/23 05:10:06;;;;;;;14.48;9.63;;;;;11.60;102870.00;;;;4989846;28;20224;-77
2022/03/23 05:12:33;;;;;;;15.38;10.43;;;;;11.60;102867.00;;;;4998436;28;20212;-78
2022/03/23 05:15:01;;;;;;;21.50;10.40;;;;;11.60;102870.00;;;;4988989;28;20775;-78
2022/03/23 05:17:29;;;;;;;18.05;10.43;;;;;11.60;102872.00;;;;4982737;28;20280;-77
2022/03/23 05:19:56;;;;;;;14.75;9.93;;;;;11.60;102879.00;;;;4986410;28;20202;-78
2022/03/23 05:22:23;;;;;;;16.20;10.13;;;;;11.50;102870.00;;;;4988696;28;20205;-78
2022/03/23 05:24:50;;;;;;;14.00;9.68;;;;;11.50;102871.00;;;;4988345;28;20194;-78
2022/03/23 05:27:17;;;;;;;19.30;11.75;;;;;11.50;102878.00;;;;4986726;28;20234;-77
2022/03/23 05:29:47;;;;;;;18.40;11.18;;;;;11.50;102888.00;;;;4991780;28;20227;-77
2022/03/23 05:32:17;;;;;;;20.38;10.82;;;;;11.50;102881.00;;;;4979824;28;20205;-78
2022/03/23 05:34:45;;;;;;;16.15;9.98;;;;;11.40;102888.00;;;;4990888;28;20201;-78
2022/03/23 05:37:13;;;;;;;16.52;10.00;;;;;11.40;102880.00;;;;4980031;28;20201;-78
2022/03/23 05:39:40;;;;;;;16.98;10.63;;;;;11.40;102895.00;;;;4982434;28;20681;-77
2022/03/23 05:42:08;;;;;;;16.38;10.00;;;;;11.40;102898.00;;;;4984394;28;20197;-75
2022/03/23 05:44:36;;;;;;;16.23;10.27;;;;;11.40;102889.00;;;;4985821;28;20216;-76
2022/03/23 05:47:07;;;;;;;15.90;10.80;;;;;11.40;102889.00;;;;4998878;28;20225;-76
2022/03/23 05:49:36;;;;;;;15.45;10.13;;;;;11.30;102890.00;;;;5006634;28;20209;-76
2022/03/23 05:52:03;;;;;;;18.27;10.75;;;;;11.30;102896.00;;;;4989660;28;20288;-76
2022/03/23 05:54:31;;;;;;;19.00;11.07;;;;;11.30;102898.00;;;;4981003;28;20194;-76
2022/03/23 05:57:02;;;;;;;16.73;10.65;;;;;11.30;102900.00;;;;4985380;28;20198;-76
2022/03/23 05:59:30;;;;;;;15.18;10.23;;;;;11.30;102888.00;;;;4983336;28;20209;-76
2022/03/23 06:01:58;;;;;;;16.42;9.75;;;;;11.30;102886.00;;;;4985300;28;20229;-76
2022/03/23 06:04:25;;;;;;;17.02;10.98;;;;;11.30;102900.00;;;;4991825;28;20218;-76
2022/03/23 06:06:54;;;;;;;16.38;10.15;;;;;11.20;102899.00;;;;4990050;28;20221;-77
2022/03/23 06:09:22;;;;;;;15.20;9.60;;;;;11.30;102902.00;;;;4990357;28;20225;-77
2022/03/23 06:11:49;;;;;;;17.45;10.60;;;;;11.30;102897.00;;;;4988596;28;20345;-76
2022/03/23 06:14:17;;;;;;;16.10;10.10;;;;;11.30;102900.00;;;;4982693;28;20205;-76
2022/03/23 06:16:44;;;;;;;17.73;10.15;;;;;11.30;102889.00;;;;4987624;28;20206;-77
2022/03/23 06:19:13;;;;;;;15.93;10.98;;;;;11.30;102895.00;;;;4985087;28;20213;-77
2022/03/23 06:21:41;;;;;;;18.58;11.02;;;;;11.30;102901.00;;;;4987832;28;20208;-77
2022/03/23 06:24:09;;;;;;;15.88;10.27;;;;;11.30;102898.00;;;;4986175;28;20246;-77
2022/03/23 06:26:37;;;;;;;18.10;11.40;;;;;11.30;102904.00;;;;4985039;28;20315;-77
2022/03/23 06:29:04;;;;;;;15.75;9.82;;;;;11.40;102907.00;;;;4982787;28;20196;-77
2022/03/23 06:31:31;;;;;;;16.55;10.88;;;;;11.40;102906.00;;;;4984813;28;20202;-76
2022/03/23 06:34:00;;;;;;;17.95;10.52;;;;;11.40;102914.00;;;;4988020;28;20206;-77
2022/03/23 06:36:27;;;;;;;16.70;9.85;;;;;11.50;102907.00;;;;4991913;28;20212;-76
2022/03/23 06:38:55;;;;;;;14.35;9.52;;;;;11.50;102914.00;;;;4992181;28;20210;-75
2022/03/23 06:41:23;;;;;;;14.57;10.02;;;;;11.60;102911.00;;;;4991306;28;20637;-75
2022/03/23 06:43:50;;;;;;;16.95;10.68;;;;;11.60;102913.00;;;;4992100;28;20206;-75
2022/03/23 06:46:18;;;;;;;17.67;10.93;;;;;11.70;102914.00;;;;4988427;28;21034;-76
2022/03/23 06:48:47;;;;;;;19.20;10.10;;;;;11.80;102919.00;;;;4990574;28;20579;-76
2022/03/23 06:51:14;;;;;;;19.67;10.38;;;;;11.80;102919.00;;;;4984336;28;20292;-75
2022/03/23 06:53:42;;;;;;;21.33;10.30;;;;;11.90;102923.00;;;;4985141;28;20656;-75
2022/03/23 06:56:10;;;;;;;15.93;10.77;;;;;12.00;102923.00;;;;4987851;28;20276;-76
2022/03/23 06:58:38;;;;;;;15.57;10.25;;;;;12.00;102925.00;;;;4987465;28;20193;-75
2022/03/23 07:01:06;;;;;;;17.20;10.07;;;;;12.10;102925.00;;;;4987842;28;20202;-75
2022/03/23 07:03:33;;;;;;;16.70;10.43;;;;;12.20;102931.00;;;;4990786;28;20276;-75
2022/03/23 07:06:00;;;;;;;16.50;9.65;;;;;12.30;102927.00;;;;4992309;28;20252;-75
2022/03/23 07:11:13;;;;;;;17.15;9.00;;;;;12.50;102939.00;;;;4992521;28;20282;-76
2022/03/23 07:13:41;;;;;;;16.35;10.73;;;;;12.60;102940.00;;;;4990212;28;20664;-75
2022/03/23 07:16:08;;;;;;;15.65;10.35;;;;;12.70;102937.00;;;;4989427;28;20232;-75
2022/03/23 07:18:36;;;;;;;16.95;11.40;;;;;12.80;102934.00;;;;4989399;28;20190;-75
2022/03/23 07:21:04;;;;;;;19.30;11.27;;;;;12.90;102938.00;;;;4989069;28;20197;-76
2022/03/23 07:23:31;;;;;;;14.07;9.52;;;;;13.00;102936.00;;;;4990445;28;20204;-75
2022/03/23 07:25:59;;;;;;;15.77;10.10;;;;;13.10;102932.00;;;;4989731;28;20197;-75
2022/03/23 07:28:26;;;;;;;14.70;10.27;;;;;13.20;102932.00;;;;4996580;28;20228;-75
2022/03/23 07:30:55;;;;;;;18.83;11.15;;;;;13.30;102935.00;;;;4995346;28;20198;-75
2022/03/23 07:33:23;;;;;;;17.77;10.73;;;;;13.50;102934.00;;;;4989479;28;20189;-75
2022/03/23 07:35:50;;;;;;;16.63;9.52;;;;;13.60;102936.00;;;;4989678;28;20205;-75
2022/03/23 07:38:17;;;;;;;14.98;9.77;;;;;13.70;102941.00;;;;4990025;28;20189;-75
2022/03/23 07:40:45;;;;;;;16.98;10.05;;;;;13.80;102938.00;;;;4990011;28;20292;-75
2022/03/23 07:43:12;;;;;;;16.35;9.73;;;;;14.00;102941.00;;;;4990079;28;20245;-75
2022/03/23 07:45:39;;;;;;;17.65;10.25;;;;;14.10;102946.00;;;;4999554;28;20205;-75
2022/03/23 07:48:08;;;;;;;18.05;10.65;;;;;14.30;102946.00;;;;4988828;28;20224;-75
2022/03/23 07:50:35;;;;;;;17.13;11.40;;;;;14.40;102954.00;;;;4988985;28;20218;-75
2022/03/23 07:53:03;;;;;;;18.02;10.02;;;;;14.50;102948.00;;;;4983446;28;20557;-75
2022/03/23 07:55:30;;;;;;;14.95;9.80;;;;;14.70;102956.00;;;;4989175;28;20202;-75
2022/03/23 07:57:57;;;;;;;16.25;10.23;;;;;14.80;102956.00;;;;4989296;28;20260;-75
2022/03/23 08:00:24;;;;;;;16.35;10.10;;;;;15.00;102954.00;;;;4988161;28;20201;-76
2022/03/23 08:02:52;;;;;;;15.15;10.35;;;;;15.10;102963.00;;;;4987906;28;20201;-75
2022/03/23 08:05:20;;;;;;;14.80;9.95;;;;;15.20;102966.00;;;;4985739;28;20944;-76
2022/03/23 08:07:47;;;;;;;14.65;9.85;;;;;15.40;102966.00;;;;4986636;28;20234;-76
2022/03/23 08:10:15;;;;;;;17.27;10.35;;;;;15.50;102972.00;;;;4989636;28;20216;-76
2022/03/23 08:12:42;;;;;;;16.13;9.77;;;;;15.60;102962.00;;;;4992260;28;20201;-75
2022/03/23 08:15:10;;;;;;;16.20;10.55;;;;;15.80;102971.00;;;;4987229;28;20584;-75
2022/03/23 08:17:38;;;;;;;14.20;10.18;;;;;15.90;102964.00;;;;4988282;28;20194;-75
2022/03/23 08:22:54;;;;;;;14.68;10.52;;;;;16.20;102975.00;;;;4991235;28;20239;-74
2022/03/23 08:25:21;;;;;;;17.05;10.13;;;;;16.30;102972.00;;;;4989808;28;20209;-75
2022/03/23 08:27:48;;;;;;;17.67;11.20;;;;;16.50;102976.00;;;;4989282;28;20225;-77
2022/03/23 08:30:17;;;;;;;19.83;11.40;;;;;16.60;102977.00;;;;4988378;28;20308;-76
2022/03/23 08:32:47;;;;;;;17.00;11.30;;;;;16.70;102970.00;;;;4987155;28;20198;-77
2022/03/23 08:35:15;;;;;;;15.27;10.15;;;;;16.80;102977.00;;;;4987720;28;20197;-77
2022/03/23 08:37:42;;;;;;;17.27;10.80;;;;;17.00;102975.00;;;;4989882;28;20206;-78
2022/03/23 08:40:12;;;;;;;15.77;11.38;;;;;17.10;102981.00;;;;4988730;28;20194;-77
2022/03/23 08:42:41;;;;;;;18.40;10.73;;;;;17.20;102971.00;;;;4988551;28;20370;-78
2022/03/23 08:45:09;;;;;;;22.83;11.25;;;;;17.30;102979.00;;;;4988477;28;20205;-78
2022/03/23 08:47:38;;;;;;;15.70;10.85;;;;;17.50;102973.00;;;;4988254;28;20221;-78
2022/03/23 08:50:08;;;;;;;15.07;11.05;;;;;17.60;102973.00;;;;4987529;28;20197;-77
2022/03/23 08:52:36;;;;;;;17.67;11.38;;;;;17.70;102980.00;;;;4988129;28;20256;-78
2022/03/23 08:55:04;;;;;;;17.88;12.23;;;;;17.80;102982.00;;;;4989097;28;20201;-79
2022/03/23 08:57:33;;;;;;;19.17;12.40;;;;;17.90;102981.00;;;;4988232;28;20198;-77
2022/03/23 09:00:00;;;;;;;17.15;11.75;;;;;18.10;102987.00;;;;4988803;28;20201;-77
2022/03/23 09:02:27;;;;;;;18.92;11.98;;;;;18.20;102982.00;;;;4988236;28;20656;-79
2022/03/23 09:04:55;;;;;;;16.33;11.95;;;;;18.30;102977.00;;;;4988212;28;20197;-79
2022/03/23 09:07:22;;;;;;;18.92;12.60;;;;;18.50;102985.00;;;;4987743;28;20229;-79
2022/03/23 09:09:49;;;;;;;18.30;12.57;;;;;18.60;102989.00;;;;4988455;28;20201;-77
2022/03/23 09:12:16;;;;;;;17.70;11.60;;;;;18.70;102982.00;;;;4995818;28;20201;-76
2022/03/23 09:14:45;;;;;;;15.73;12.15;;;;;18.80;102985.00;;;;4990377;28;20225;-76
2022/03/23 09:17:12;;;;;;;17.50;12.23;;;;;18.90;102990.00;;;;4992196;28;20206;-78
2022/03/23 09:19:40;;;;;;;18.75;12.93;;;;;19.00;102992.00;;;;4991781;28;20193;-77
2022/03/23 09:22:09;;;;;;;17.52;13.02;;;;;19.10;102993.00;;;;4992378;28;20208;-77
2022/03/23 09:24:36;;;;;;;17.48;11.35;;;;;19.30;102988.00;;;;4992217;28;20203;-77
2022/03/23 09:27:04;;;;;;;18.50;13.40;;;;;19.40;102989.00;;;;4995380;28;20229;-77
2022/03/23 09:29:31;;;;;;;19.35;12.98;;;;;19.50;102996.00;;;;4993324;28;20201;-76
2022/03/23 09:32:00;;;;;;;19.95;14.10;;;;;19.60;102994.00;;;;4991022;28;20206;-76
2022/03/23 09:34:27;;;;;;;17.50;13.13;;;;;19.70;102996.00;;;;4991956;28;20205;-76
2022/03/23 09:39:39;;;;;;;18.48;13.85;;;;;20.00;102994.00;;;;4991364;28;20200;-76
2022/03/23 09:42:07;;;;;;;17.35;12.30;;;;;20.10;102995.00;;;;4996293;28;20185;-76
2022/03/23 09:44:38;;;;;;;19.73;12.95;;;;;20.20;102996.00;;;;5011879;28;20209;-77
2022/03/23 09:47:08;;;;;;;20.45;13.43;;;;;20.40;102996.00;;;;4994073;28;20813;-76
2022/03/23 09:49:35;;;;;;;19.20;13.95;;;;;20.50;102994.00;;;;4992569;28;20790;-76
2022/03/23 09:52:04;;;;;;;19.58;14.23;;;;;20.60;102995.00;;;;4991566;28;20213;-76
2022/03/23 09:54:41;;;;;;;18.25;14.07;;;;;20.70;102992.00;;;;4992663;28;20277;-77
2022/03/23 09:57:11;;;;;;;19.17;12.27;;;;;20.90;102993.00;;;;4993475;28;20623;-76
2022/03/23 09:59:39;;;;;;;18.80;13.27;;;;;21.00;102996.00;;;;4990997;28;20683;-76
2022/03/23 10:02:40;;;;;;;20.40;14.05;;;;;21.00;102993.00;;;;5005035;28;20231;-76
2022/03/23 10:05:45;;;;;;;19.95;12.88;;;;;21.20;102997.00;;;;5009034;28;20607;-77
2022/03/23 10:09:04;;;;;;;18.90;13.00;;;;;21.30;102992.00;;;;4989338;28;20237;-77
2022/03/23 10:12:36;;;;;;;20.95;13.15;;;;;21.50;102996.00;;;;4987442;28;20186;-77
2022/03/23 10:15:51;;;;;;;18.98;12.63;;;;;21.70;102998.00;;;;4978699;28;20237;-76
2022/03/23 10:18:51;;;;;;;18.70;12.52;;;;;21.80;102994.00;;;;4993373;28;20210;-76
2022/03/23 10:21:20;;;;;;;21.63;14.05;;;;;22.00;102989.00;;;;4990348;28;20209;-76
2022/03/23 10:24:31;;;;;;;18.88;12.55;;;;;22.10;102986.00;;;;4991581;28;20201;-77
2022/03/23 10:26:59;;;;;;;20.65;13.43;;;;;22.30;102984.00;;;;4990762;28;20207;-77
2022/03/23 10:29:27;;;;;;;22.35;13.38;;;;;22.50;102988.00;;;;4987398;28;20225;-77
2022/03/23 10:32:01;;;;;;;22.08;13.88;;;;;22.60;102985.00;;;;4986695;28;20640;-77
2022/03/23 10:34:42;;;;;;;19.35;13.25;;;;;22.70;102984.00;;;;4983720;28;20197;-78
2022/03/23 10:37:12;;;;;;;22.50;14.45;;;;;22.90;102978.00;;;;4993944;28;20206;-77
2022/03/23 10:39:39;;;;;;;22.63;15.80;;;;;23.00;102986.00;;;;4991758;28;20564;-78
2022/03/23 10:42:10;;;;;;;20.55;13.93;;;;;23.10;102976.00;;;;4991499;28;20316;-77
2022/03/23 10:44:38;;;;;;;22.10;13.82;;;;;23.20;102988.00;;;;4993032;28;20560;-78
2022/03/23 10:47:06;;;;;;;20.13;13.77;;;;;23.30;102982.00;;;;4991670;28;20209;-78
2022/03/23 10:49:36;;;;;;;19.17;15.00;;;;;23.40;102977.00;;;;4992004;28;20198;-78
2022/03/23 10:52:15;;;;;;;26.45;15.15;;;;;23.50;102980.00;;;;4993624;28;20490;-78
2022/03/23 10:54:54;;;;;;;19.85;13.73;;;;;23.60;102975.00;;;;4992909;28;20205;-78
2022/03/23 10:57:38;;;;;;;23.33;15.30;;;;;23.80;102978.00;;;;4988484;28;20189;-77
2022/03/23 11:00:06;;;;;;;21.77;15.55;;;;;23.80;102976.00;;;;4988616;28;20202;-77
2022/03/23 11:02:46;;;;;;;24.10;15.18;;;;;23.90;102979.00;;;;4989075;28;20625;-77
2022/03/23 11:05:29;;;;;;;19.38;13.00;;;;;24.00;102977.00;;;;4985506;28;20665;-77
2022/03/23 11:08:07;;;;;;;17.38;12.40;;;;;24.10;102967.00;;;;4988689;28;20221;-77
2022/03/23 11:16:08;;;;;;;22.15;14.00;;;;;24.40;102973.00;;;;4989234;28;20236;-77
2022/03/23 11:18:36;;;;;;;21.63;14.73;;;;;24.50;102977.00;;;;4989420;28;20198;-77
2022/03/23 11:21:04;;;;;;;18.85;13.77;;;;;24.60;102972.00;;;;4986944;28;20205;-77
2022/03/23 11:23:35;;;;;;;20.23;13.23;;;;;24.70;102975.00;;;;4998150;28;20209;-77
2022/03/23 11:26:04;;;;;;;18.50;13.70;;;;;24.80;102972.00;;;;4991905;28;20204;-76
2022/03/23 11:28:34;;;;;;;17.23;11.90;;;;;24.80;102974.00;;;;4993331;28;20697;-76
2022/03/23 11:31:04;;;;;;;22.23;13.40;;;;;24.80;102968.00;;;;4987133;28;20208;-76
2022/03/23 11:33:34;;;;;;;22.00;13.88;;;;;24.90;102971.00;;;;4988293;28;20225;-77
2022/03/23 11:36:03;;;;;;;17.63;13.40;;;;;25.00;102975.00;;;;4989127;28;20201;-77
2022/03/23 11:38:33;;;;;;;18.42;13.98;;;;;25.00;102978.00;;;;4988959;28;20202;-77
2022/03/23 11:41:01;;;;;;;18.25;13.50;;;;;25.10;102973.00;;;;4990959;28;20226;-76
2022/03/23 11:43:32;;;;;;;20.75;13.90;;;;;25.10;102962.00;;;;4998327;28;20605;-77
2022/03/23 11:46:00;;;;;;;18.40;12.60;;;;;25.10;102972.00;;;;5011662;28;20212;-77
2022/03/23 11:48:41;;;;;;;21.70;13.68;;;;;25.10;102978.00;;;;5012104;28;20323;-77
2022/03/23 11:51:42;;;;;;;19.45;13.70;;;;;25.10;102967.00;;;;5008278;28;20204;-77
2022/03/23 11:54:17;;;;;;;19.25;13.23;;;;;25.20;102963.00;;;;4955542;28;20220;-77
2022/03/23 11:56:55;;;;;;;17.08;12.82;;;;;25.30;102961.00;;;;4993216;28;20510;-76
2022/03/23 11:59:23;;;;;;;16.50;11.93;;;;;25.40;102956.00;;;;4993548;28;20642;-77
2022/03/23 12:01:52;;;;;;;16.20;12.63;;;;;25.40;102956.00;;;;5012698;28;20205;-77
2022/03/23 12:04:21;;;;;;;14.90;12.50;;;;;25.50;102957.00;;;;5011260;28;20360;-77
2022/03/23 12:06:58;;;;;;;17.05;11.57;;;;;25.50;102955.00;;;;5011623;28;20208;-77
2022/03/23 12:09:35;;;;;;;17.35;12.88;;;;;25.50;102951.00;;;;5011590;28;20347;-77
2022/03/23 12:12:04;;;;;;;17.70;12.88;;;;;25.60;102952.00;;;;5013420;28;20228;-77
2022/03/23 12:14:34;;;;;;;18.60;12.60;;;;;25.70;102945.00;;;;5012622;28;20284;-77
2022/03/23 12:17:17;;;;;;;16.98;11.88;;;;;25.70;102947.00;;;;5013393;28;20200;-76
2022/03/23 12:20:04;;;;;;;15.13;11.30;;;;;25.70;102941.00;;;;5010575;28;20220;-76
2022/03/23 12:22:55;;;;;;;21.15;13.15;;;;;25.80;102938.00;;;;4993073;28;20281;-76
2022/03/23 12:25:34;;;;;;;18.30;12.65;;;;;25.80;102936.00;;;;4992540;28;20533;-76